Главная страница
METAR-TAF:

METAR-TAF

Аэропорты :

Аэропорт Вавау

Вавау, Тонга

широта: 18-35-07S, долгота: 173-57-42W, высота над уровнем моря: 72 м

Текущие метеонаблюдения

Эта сводка был подготовлена 32 минут назад, в 18:00 UTC
Ветер 6 Узел от восточно-юго-восточный
Температура 26°C
Влажность 89%
Давление 1015 hPa
Видимость 10 км и более
небольшая облачность на высоте 1600 фута

METAR: NFTV 141800Z 12006KT 9999 FEW016 26/24 Q1015

Время: 07:32 (18:32 UTC)

Прогноз

Эта сводка был подготовлена 1 час и 1 минут назад, в 17:31 UTC
Прогноз действительный с 14-го 18 UTC до 15-го 18 UTC
Ветер 8 Узел от восточный
Видимость 10 км и более
Отдельные облака на высоте 1600 фута

TAF: NFTV 141731Z 1418/1518 10008KT 9999 SCT016

Метеонаблюдения и прогнозы для более 4000 аэропортов (сводки METAR и TAF).

Имеющиеся станции представлены на карте желтыми и красными точками.

Чтобы увидеть название станции, наведите на нее мышь.

Затем щелкните, чтобы увидеть метеонаблюдения и метеопрогнозы.

Управление картой: чтобы увеличить масштаб, щелкните зеленые кнопки с черным крестиком; чтобы уменьшить масштаб, щелкните зеленую кнопку с тире; для просмотра соседних карт щелкайте зеленые стрелки.


METAR-TAF: